createdAt,value
2022-11-20T00:00:56.990Z,63.2
2022-11-20T00:02:14.068Z,63.6
2022-11-20T00:03:31.130Z,63.6
2022-11-20T00:04:48.036Z,63.8
2022-11-20T00:06:04.968Z,63.8
2022-11-20T00:07:22.044Z,63.6
2022-11-20T00:08:38.957Z,63.3
2022-11-20T00:09:55.987Z,62.8
2022-11-20T00:11:15.943Z,62.9
2022-11-20T00:12:29.968Z,62.9
2022-11-20T00:13:47.013Z,63.4
2022-11-20T00:15:04.100Z,64.2
2022-11-20T00:16:20.994Z,64.7
2022-11-20T00:17:38.039Z,65
2022-11-20T00:18:55.073Z,65.6
2022-11-20T00:20:12.034Z,65.6
2022-11-20T00:21:29.009Z,66.4
2022-11-20T00:22:46.034Z,66.7
2022-11-20T00:24:02.992Z,67
2022-11-20T00:25:19.989Z,66.7
2022-11-20T00:26:37.017Z,66.4
2022-11-20T00:27:54.037Z,65.5
2022-11-20T00:29:10.985Z,65.4
2022-11-20T00:30:28.006Z,65.2
2022-11-20T00:31:45.003Z,64.8
2022-11-20T00:33:02.230Z,64.7
2022-11-20T00:34:19.015Z,64.7
2022-11-20T00:35:35.995Z,64.5
2022-11-20T00:36:52.995Z,64.1
2022-11-20T00:38:10.032Z,64.1
2022-11-20T00:39:27.015Z,64.9
2022-11-20T00:40:44.022Z,65.7
2022-11-20T00:42:01.013Z,66.6
2022-11-20T00:43:18.035Z,67.4
2022-11-20T00:44:35.055Z,67.9
2022-11-20T00:45:52.078Z,68.4
2022-11-20T00:47:09.026Z,68.6
2022-11-20T00:48:26.048Z,68.6
2022-11-20T00:49:43.028Z,68.6
2022-11-20T00:51:00.026Z,68.6
2022-11-20T00:52:17.023Z,67.8
2022-11-20T00:53:34.058Z,67.4
2022-11-20T00:54:51.074Z,67.1
2022-11-20T00:56:08.043Z,67.1
2022-11-20T00:57:25.023Z,67.4
2022-11-20T00:58:42.206Z,68.2
2022-11-20T00:59:59.019Z,68.4
2022-11-20T01:01:16.220Z,68.7
2022-11-20T01:02:33.041Z,68.6
2022-11-20T01:03:50.053Z,68.2
2022-11-20T01:05:07.025Z,67.9
2022-11-20T01:06:24.050Z,67.3
2022-11-20T01:07:41.118Z,66.3
2022-11-20T01:08:58.062Z,65.8
2022-11-20T01:10:15.761Z,65
2022-11-20T01:11:33.034Z,64.7
2022-11-20T01:12:50.065Z,64.9
2022-11-20T01:14:07.077Z,65.2
2022-11-20T01:15:24.061Z,65.2
2022-11-20T01:16:41.050Z,65.7
2022-11-20T01:17:58.048Z,66.5
2022-11-20T01:19:17.857Z,67.2
2022-11-20T01:20:32.074Z,67.6
2022-11-20T01:21:49.073Z,67.8
2022-11-20T01:23:06.063Z,67.7
2022-11-20T01:24:23.124Z,67.4
2022-11-20T01:25:40.090Z,67.1
2022-11-20T01:26:57.097Z,66.7
2022-11-20T01:28:14.067Z,66.1
2022-11-20T01:29:31.134Z,65.6
2022-11-20T01:30:48.073Z,64.9
2022-11-20T01:32:05.074Z,64.6
2022-11-20T01:33:22.076Z,64.2
2022-11-20T01:34:39.120Z,64.1
2022-11-20T01:35:56.170Z,64
2022-11-20T01:37:13.088Z,64
2022-11-20T01:38:30.082Z,63.8
2022-11-20T01:39:47.123Z,63.9
2022-11-20T01:41:04.108Z,64
2022-11-20T01:42:21.078Z,63.9
2022-11-20T01:43:38.085Z,63.8
2022-11-20T01:44:55.110Z,63.7
2022-11-20T01:46:12.151Z,63.5
2022-11-20T01:47:29.087Z,63.4
2022-11-20T01:48:46.097Z,64.1
2022-11-20T01:50:03.188Z,65.2
2022-11-20T01:51:20.155Z,66.5
2022-11-20T01:52:37.088Z,67.4
2022-11-20T01:53:54.107Z,68.2
2022-11-20T01:55:11.092Z,68.9
2022-11-20T01:56:28.145Z,69.4
2022-11-20T01:57:45.117Z,69.8
2022-11-20T01:59:02.126Z,70
2022-11-20T02:00:19.165Z,70.3
2022-11-20T02:01:36.305Z,70.4
2022-11-20T02:02:53.115Z,70.1
2022-11-20T02:04:10.108Z,69.9
2022-11-20T02:05:27.127Z,69.5
2022-11-20T02:06:44.157Z,69.1
2022-11-20T02:08:01.103Z,68.5
2022-11-20T02:09:18.232Z,68.3
2022-11-20T02:10:35.130Z,68.4
2022-11-20T02:11:52.130Z,68.2
2022-11-20T02:13:09.126Z,68.3
2022-11-20T02:14:26.123Z,68.4
2022-11-20T02:15:43.158Z,68.3
2022-11-20T02:17:00.168Z,68.4
2022-11-20T02:18:17.112Z,68.6
2022-11-20T02:19:34.118Z,69.1
2022-11-20T02:20:51.163Z,69.5
2022-11-20T02:22:08.147Z,69.7
2022-11-20T02:23:25.147Z,70.1
2022-11-20T02:24:42.132Z,70.4
2022-11-20T02:25:59.264Z,70.6
2022-11-20T02:27:16.249Z,70.5
2022-11-20T02:28:33.126Z,69.9
2022-11-20T02:29:50.131Z,69.5
2022-11-20T02:31:07.151Z,68.8
2022-11-20T02:32:24.632Z,68
2022-11-20T02:33:41.130Z,67.8
2022-11-20T02:34:58.153Z,67.2
2022-11-20T02:36:15.174Z,66.8
2022-11-20T02:37:32.368Z,66.4
2022-11-20T02:38:49.159Z,65.8
2022-11-20T02:40:06.203Z,65.3
2022-11-20T02:41:23.153Z,64.8
2022-11-20T02:42:40.171Z,64.2
2022-11-20T02:43:57.301Z,63.9
2022-11-20T02:45:14.215Z,63.4
2022-11-20T02:46:31.151Z,63.1
2022-11-20T02:47:48.177Z,63
2022-11-20T02:49:05.224Z,63.1
2022-11-20T02:50:22.189Z,63.3
2022-11-20T02:51:39.166Z,63.3
2022-11-20T02:52:56.182Z,63.3
2022-11-20T02:54:13.234Z,63.3
2022-11-20T02:55:30.171Z,63.5
2022-11-20T02:56:47.177Z,63.8
2022-11-20T02:58:04.182Z,64
2022-11-20T02:59:21.609Z,63.8
2022-11-20T03:00:38.211Z,63.4
2022-11-20T03:01:55.394Z,63.1
2022-11-20T03:03:12.193Z,62.6
2022-11-20T03:04:29.158Z,62
2022-11-20T03:05:46.198Z,61.8
2022-11-20T03:07:03.243Z,61.9
2022-11-20T03:08:20.204Z,61.8
2022-11-20T03:09:37.198Z,61.9
2022-11-20T03:10:54.196Z,62
2022-11-20T03:12:11.227Z,61.8
2022-11-20T03:13:28.244Z,61.5
2022-11-20T03:14:47.801Z,61.1
2022-11-20T03:16:02.222Z,60.9
2022-11-20T03:17:19.187Z,60.8
2022-11-20T03:18:36.258Z,60.5
2022-11-20T03:19:53.191Z,60.5
2022-11-20T03:21:10.210Z,60.3
2022-11-20T03:22:27.199Z,60.9
2022-11-20T03:23:44.239Z,61.2
2022-11-20T03:25:01.231Z,61.6
2022-11-20T03:26:18.224Z,61.8
2022-11-20T03:27:35.306Z,62.3
2022-11-20T03:28:52.277Z,62.6
2022-11-20T03:30:09.359Z,63
2022-11-20T03:31:26.213Z,63.5
2022-11-20T03:32:43.197Z,63.8
2022-11-20T03:34:00.232Z,64.1
2022-11-20T03:35:17.230Z,64.2
2022-11-20T03:36:34.721Z,64.1
2022-11-20T03:37:51.236Z,64.3
2022-11-20T03:39:08.237Z,63.8
2022-11-20T03:40:25.226Z,63.5
2022-11-20T03:41:42.280Z,62.8
2022-11-20T03:42:59.238Z,62.5
2022-11-20T03:44:16.239Z,61.7
2022-11-20T03:45:33.265Z,61.2
2022-11-20T03:46:50.306Z,60.8
2022-11-20T03:48:07.229Z,60.6
2022-11-20T03:49:24.417Z,60.7
2022-11-20T03:50:41.294Z,60.6
2022-11-20T03:51:58.250Z,60.6
2022-11-20T03:53:15.231Z,60.3
2022-11-20T03:54:32.281Z,60.3
2022-11-20T03:55:49.229Z,60.1
2022-11-20T03:57:06.285Z,60
2022-11-20T03:58:23.258Z,59.7
2022-11-20T03:59:40.316Z,59.9
2022-11-20T04:00:57.260Z,60
2022-11-20T04:02:14.331Z,60.1
2022-11-20T04:03:31.252Z,60.1
2022-11-20T04:04:48.287Z,60
2022-11-20T04:06:05.230Z,59.9
2022-11-20T04:07:22.760Z,59.7
2022-11-20T04:08:39.248Z,59.4
2022-11-20T04:09:56.262Z,59
2022-11-20T04:11:13.255Z,58.9
2022-11-20T04:12:30.289Z,58.8
2022-11-20T04:13:47.244Z,58.6
2022-11-20T04:15:04.282Z,58.5
2022-11-20T04:16:21.263Z,58.7
2022-11-20T04:17:38.316Z,59
2022-11-20T04:18:55.274Z,59.5
2022-11-20T04:20:12.386Z,60
2022-11-20T04:21:29.359Z,59.8
2022-11-20T04:22:46.328Z,59.9
2022-11-20T04:24:03.333Z,60.6
2022-11-20T04:25:20.296Z,61.1
2022-11-20T04:26:37.275Z,61.7
2022-11-20T04:27:54.299Z,61.9
2022-11-20T04:29:11.277Z,62.4
2022-11-20T04:30:28.289Z,62.6
2022-11-20T04:31:45.298Z,62.9
2022-11-20T04:33:02.331Z,63.2
2022-11-20T04:34:19.276Z,63.6
2022-11-20T04:35:36.316Z,63.7
2022-11-20T04:36:53.273Z,63.9
2022-11-20T04:38:10.325Z,64
2022-11-20T04:39:27.297Z,63.7
2022-11-20T04:40:44.328Z,63.1
2022-11-20T04:42:01.302Z,62.8
2022-11-20T04:43:18.344Z,62.3
2022-11-20T04:44:35.320Z,62
2022-11-20T04:45:52.334Z,61.8
2022-11-20T04:47:09.302Z,61.8
2022-11-20T04:48:26.344Z,61.5
2022-11-20T04:49:43.453Z,61.1
2022-11-20T04:51:00.315Z,60.7
2022-11-20T04:52:17.316Z,60.3
2022-11-20T04:53:34.358Z,59.8
2022-11-20T04:54:51.354Z,59.5
2022-11-20T04:56:08.350Z,59.3
2022-11-20T04:57:25.315Z,58.9
2022-11-20T04:58:42.318Z,58.7
2022-11-20T04:59:59.374Z,58.4
2022-11-20T05:01:16.468Z,58.7
2022-11-20T05:02:33.351Z,59.8
2022-11-20T05:03:50.333Z,61.3
2022-11-20T05:05:07.421Z,62.7
2022-11-20T05:06:24.332Z,63.9
2022-11-20T05:07:41.411Z,64.6
2022-11-20T05:08:58.369Z,64.7
2022-11-20T05:10:15.343Z,64.6
2022-11-20T05:11:32.339Z,64.2
2022-11-20T05:12:49.325Z,64.2
2022-11-20T05:14:06.355Z,64.4
2022-11-20T05:15:23.333Z,64.4
2022-11-20T05:16:40.345Z,64.1
2022-11-20T05:17:57.337Z,63.7
2022-11-20T05:19:14.394Z,63.4
2022-11-20T05:20:31.344Z,63.4
2022-11-20T05:21:48.359Z,63.5
2022-11-20T05:23:05.361Z,63.2
2022-11-20T05:24:22.776Z,63.1
2022-11-20T05:25:39.329Z,63.7
2022-11-20T05:26:56.366Z,63.6
2022-11-20T05:28:13.369Z,63.9
2022-11-20T05:29:30.385Z,64.1
2022-11-20T05:30:47.410Z,64
2022-11-20T05:32:04.465Z,63.6
2022-11-20T05:33:21.366Z,63.1
2022-11-20T05:34:38.351Z,62.7
2022-11-20T05:35:55.422Z,62.2
2022-11-20T05:37:12.382Z,61.7
2022-11-20T05:38:29.422Z,61.3
2022-11-20T05:39:46.356Z,60.7
2022-11-20T05:41:03.428Z,60.1
2022-11-20T05:42:20.379Z,59.8
2022-11-20T05:43:37.430Z,59.8
2022-11-20T05:44:54.378Z,59.7
2022-11-20T05:46:11.396Z,59.5
2022-11-20T05:47:28.420Z,59.2
2022-11-20T05:48:45.370Z,59.2
2022-11-20T05:50:02.682Z,59.9
2022-11-20T05:51:19.434Z,60.6
2022-11-20T05:52:36.371Z,61.4
2022-11-20T05:53:53.575Z,62.1
2022-11-20T05:55:10.400Z,62.5
2022-11-20T05:56:27.440Z,62.8
2022-11-20T05:57:44.403Z,63.1
2022-11-20T05:59:01.399Z,63.4
2022-11-20T06:00:18.422Z,63.8
2022-11-20T06:01:35.444Z,64.2
2022-11-20T06:02:52.521Z,64.7
2022-11-20T06:04:09.443Z,65.3
2022-11-20T06:05:26.420Z,65.9
2022-11-20T06:06:43.396Z,66.4
2022-11-20T06:08:00.382Z,66.6
2022-11-20T06:09:17.417Z,66.4
2022-11-20T06:10:34.397Z,66.1
2022-11-20T06:11:51.396Z,66.2
2022-11-20T06:13:08.426Z,66.5
2022-11-20T06:14:25.452Z,66.8
2022-11-20T06:15:42.443Z,67.1
2022-11-20T06:16:59.415Z,67.6
2022-11-20T06:18:16.395Z,68
2022-11-20T06:19:33.554Z,68.3
2022-11-20T06:20:50.407Z,68.1
2022-11-20T06:22:07.451Z,67.7
2022-11-20T06:23:24.507Z,67.3
2022-11-20T06:24:41.415Z,67.1
2022-11-20T06:25:58.427Z,67
2022-11-20T06:27:15.415Z,67
2022-11-20T06:28:32.513Z,67
2022-11-20T06:29:49.440Z,66.7
2022-11-20T06:31:06.461Z,66.3
2022-11-20T06:32:23.493Z,65.5
2022-11-20T06:33:40.442Z,64.6
2022-11-20T06:34:57.445Z,63.9
2022-11-20T06:36:14.439Z,62.9
2022-11-20T06:37:31.468Z,61.8
2022-11-20T06:38:48.437Z,60.8
2022-11-20T06:40:05.492Z,59.9
2022-11-20T06:41:22.420Z,58.5
2022-11-20T06:42:39.438Z,56.9
2022-11-20T06:43:56.478Z,55.8
2022-11-20T06:45:13.457Z,54.7
2022-11-20T06:46:30.438Z,53.5
2022-11-20T06:47:47.438Z,52.7
2022-11-20T06:49:04.489Z,51.3
2022-11-20T06:50:21.449Z,50.9
2022-11-20T06:51:38.505Z,50.1
2022-11-20T06:52:55.472Z,50.2
2022-11-20T06:54:12.466Z,49.3
2022-11-20T06:55:29.477Z,47.8
2022-11-20T06:56:46.538Z,46.8
2022-11-20T06:58:03.441Z,46.2
2022-11-20T06:59:20.873Z,46
2022-11-20T07:00:37.542Z,46.2
2022-11-20T07:01:54.530Z,46.6
2022-11-20T07:03:11.457Z,46.7
2022-11-20T07:04:28.475Z,46.4
2022-11-20T07:05:45.483Z,46.5
2022-11-20T07:07:02.548Z,46.9
2022-11-20T07:08:19.505Z,46.9
2022-11-20T07:09:36.493Z,45.7
2022-11-20T07:10:53.481Z,44.8
2022-11-20T07:12:10.489Z,44.1
2022-11-20T07:13:27.499Z,44.4
2022-11-20T07:14:44.884Z,44.1
2022-11-20T07:16:01.489Z,44.1
2022-11-20T07:17:18.472Z,44.4
2022-11-20T07:18:35.475Z,44.7
2022-11-20T07:19:52.565Z,44.9
2022-11-20T07:21:09.585Z,44.6
2022-11-20T07:22:26.490Z,43.8
2022-11-20T07:23:43.538Z,42.6
2022-11-20T07:25:00.481Z,42
2022-11-20T07:26:17.558Z,42.2
2022-11-20T07:27:34.535Z,42.1
2022-11-20T07:28:51.482Z,41.6
2022-11-20T07:30:08.521Z,41
2022-11-20T07:35:07.703Z,42.8
2022-11-20T07:36:24.487Z,43.4
2022-11-20T07:37:41.507Z,44.4
2022-11-20T07:38:58.550Z,45.3
2022-11-20T07:40:15.513Z,46.2
2022-11-20T07:41:32.508Z,46.4
2022-11-20T07:42:49.536Z,46.6
2022-11-20T07:44:06.557Z,45.8
2022-11-20T07:45:23.696Z,45.5
2022-11-20T07:46:40.525Z,45.2
2022-11-20T07:47:57.651Z,46
2022-11-20T07:49:14.534Z,46.1
2022-11-20T07:50:31.563Z,45.6
2022-11-20T07:51:51.807Z,44.9
2022-11-20T07:53:05.534Z,44.4
2022-11-20T07:54:22.534Z,44.1
2022-11-20T07:55:39.569Z,43.6
2022-11-20T07:56:56.516Z,43.4
2022-11-20T07:58:13.534Z,42.5
2022-11-20T07:59:30.544Z,42.3
2022-11-20T08:00:47.666Z,42.4
2022-11-20T08:02:04.577Z,42.4
2022-11-20T08:03:24.815Z,43.2
2022-11-20T08:04:38.546Z,44.5
2022-11-20T08:05:55.581Z,45.5
2022-11-20T08:07:12.579Z,45.6
2022-11-20T08:08:32.239Z,44.9
2022-11-20T08:09:46.553Z,44.3
2022-11-20T08:11:03.579Z,44.2
2022-11-20T08:12:20.554Z,44.7
2022-11-20T08:13:37.567Z,45
2022-11-20T08:14:54.544Z,44.8
2022-11-20T08:16:11.762Z,43.7
2022-11-20T08:17:28.578Z,42.9
2022-11-20T08:18:45.553Z,43.3
2022-11-20T08:20:02.749Z,42.9
2022-11-20T08:21:19.706Z,43.4
2022-11-20T08:22:36.558Z,44.8
2022-11-20T08:23:53.570Z,45.3
2022-11-20T08:25:10.559Z,45.5
2022-11-20T08:26:27.603Z,45.9
2022-11-20T08:27:44.575Z,45.5
2022-11-20T08:29:01.632Z,46.7
2022-11-20T08:30:18.596Z,48.6
2022-11-20T08:31:35.588Z,49
2022-11-20T08:32:52.623Z,49.3
2022-11-20T08:34:10.766Z,49.1
2022-11-20T08:35:26.599Z,48.9
2022-11-20T08:36:44.014Z,49.2
2022-11-20T08:38:00.793Z,49.9
2022-11-20T08:39:17.609Z,49.6
2022-11-20T08:40:34.600Z,48.1
2022-11-20T08:41:51.764Z,47.1
2022-11-20T08:43:08.585Z,47.6
2022-11-20T08:44:25.616Z,48.2
2022-11-20T08:45:42.596Z,47.7
2022-11-20T08:46:59.724Z,46.8
2022-11-20T08:48:16.899Z,46.4
2022-11-20T08:49:34.211Z,45.9
2022-11-20T08:50:51.659Z,45.7
2022-11-20T08:52:08.600Z,46.7
2022-11-20T08:53:25.616Z,46
2022-11-20T08:54:42.695Z,46
2022-11-20T08:55:59.603Z,45.3
2022-11-20T08:57:16.669Z,44.2
2022-11-20T08:58:49.090Z,44.3
2022-11-20T09:00:05.383Z,44.3
2022-11-20T09:01:07.678Z,45.1
2022-11-20T09:02:25.293Z,45.8
2022-11-20T09:03:42.666Z,45.1
2022-11-20T09:04:59.722Z,43.9
2022-11-20T09:06:16.610Z,43.5
2022-11-20T09:07:33.737Z,42.4
2022-11-20T09:08:50.649Z,42.1
2022-11-20T09:10:23.446Z,41.8
2022-11-20T09:11:24.732Z,41
2022-11-20T09:12:42.314Z,41.4
2022-11-20T09:13:59.619Z,42.5
2022-11-20T09:15:16.628Z,43.1
2022-11-20T09:16:33.636Z,43.1
2022-11-20T09:17:50.666Z,43.7
2022-11-20T09:19:33.901Z,43.9
2022-11-20T09:20:24.654Z,43.2
2022-11-20T09:21:41.655Z,42.6
2022-11-20T09:22:58.644Z,42.6
2022-11-20T09:24:15.628Z,43.4
2022-11-20T09:25:32.690Z,43.7
2022-11-20T09:26:49.631Z,44
2022-11-20T09:28:06.720Z,44.4
2022-11-20T09:29:23.951Z,45.1
2022-11-20T09:30:40.851Z,45.7
2022-11-20T09:31:57.750Z,45.6
2022-11-20T09:33:14.678Z,47
2022-11-20T09:34:31.681Z,47.9
2022-11-20T09:35:48.734Z,48.4
2022-11-20T09:37:06.456Z,49.2
2022-11-20T09:38:23.101Z,49.9
2022-11-20T09:39:39.958Z,48.4
2022-11-20T09:40:56.713Z,46.8
2022-11-20T09:42:13.705Z,46.5
2022-11-20T09:43:33.734Z,47
2022-11-20T09:44:47.671Z,47.5
2022-11-20T09:46:04.667Z,47.9
2022-11-20T09:47:21.678Z,47.2
2022-11-20T09:48:38.684Z,46.4
2022-11-20T09:49:55.663Z,47
2022-11-20T09:51:12.684Z,47.4
2022-11-20T09:52:29.665Z,47.7
2022-11-20T09:53:46.710Z,48.1
2022-11-20T09:55:03.843Z,47.8
2022-11-20T09:56:22.415Z,47.6
2022-11-20T09:57:37.675Z,47.3
2022-11-20T09:58:54.708Z,46.4
2022-11-20T10:00:11.893Z,46.1
2022-11-20T10:01:28.959Z,45
2022-11-20T10:02:45.832Z,44.5
2022-11-20T10:04:02.834Z,44.2
2022-11-20T10:05:19.687Z,43
2022-11-20T10:06:36.724Z,42.7
2022-11-20T10:07:53.751Z,43.2
2022-11-20T10:09:10.842Z,42.9
2022-11-20T10:10:27.765Z,42.7
2022-11-20T10:11:44.702Z,42.9
2022-11-20T10:13:01.747Z,42.4
2022-11-20T10:14:18.748Z,41.6
2022-11-20T10:15:35.782Z,42.3
2022-11-20T10:16:52.711Z,43.4
2022-11-20T10:18:09.738Z,43.5
2022-11-20T10:19:26.792Z,43.8
2022-11-20T10:20:43.745Z,44.7
2022-11-20T10:22:00.744Z,44.7
2022-11-20T10:23:21.454Z,44.3
2022-11-20T10:24:34.749Z,44.5
2022-11-20T10:25:51.738Z,44.7
2022-11-20T10:27:08.777Z,45
2022-11-20T10:28:25.731Z,44.8
2022-11-20T10:29:42.751Z,44.9
2022-11-20T10:30:59.824Z,44.9
2022-11-20T10:32:16.769Z,44.8
2022-11-20T10:33:44.185Z,44.3
2022-11-20T10:34:50.752Z,44.8
2022-11-20T10:36:07.750Z,45.8
2022-11-20T10:37:24.760Z,45.7
2022-11-20T10:38:41.790Z,45.9
2022-11-20T10:39:58.771Z,46.2
2022-11-20T10:41:15.750Z,46.6
2022-11-20T10:42:32.808Z,46.9
2022-11-20T10:43:49.780Z,47.4
2022-11-20T10:45:07.133Z,48.5
2022-11-20T10:46:23.799Z,48.8
2022-11-20T10:47:40.783Z,48.9
2022-11-20T10:48:57.772Z,48.4
2022-11-20T10:50:19.109Z,48.1
2022-11-20T10:51:31.884Z,46.7
2022-11-20T10:52:48.872Z,45.1
2022-11-20T10:54:05.773Z,44.4
2022-11-20T10:55:22.852Z,44.3
2022-11-20T10:56:39.779Z,44.3
2022-11-20T10:57:56.762Z,44.7
2022-11-20T10:59:13.770Z,45.3
2022-11-20T11:00:30.832Z,44.8
2022-11-20T11:01:47.954Z,44.8
2022-11-20T11:03:04.829Z,45.5
2022-11-20T11:04:22.570Z,44.5
2022-11-20T11:05:40.132Z,43.7
2022-11-20T11:06:56.773Z,43
2022-11-20T11:08:14.318Z,43
2022-11-20T11:09:32.067Z,43
2022-11-20T11:10:49.809Z,44.2
2022-11-20T11:12:07.427Z,44.4
2022-11-20T11:13:24.280Z,44.9
2022-11-20T11:14:41.024Z,45
2022-11-20T11:15:58.197Z,45.6
2022-11-20T11:17:14.971Z,46
2022-11-20T11:18:31.812Z,46.2
2022-11-20T11:19:49.467Z,45.1
2022-11-20T11:21:06.959Z,44.5
2022-11-20T11:22:23.849Z,44.1
2022-11-20T11:23:41.716Z,44.5
2022-11-20T11:24:58.857Z,45.3
2022-11-20T11:26:15.887Z,45.9
2022-11-20T11:27:33.563Z,46
2022-11-20T11:28:50.813Z,46.7
2022-11-20T11:30:08.501Z,47.4
2022-11-20T11:31:27.285Z,46.9
2022-11-20T11:32:44.380Z,46
2022-11-20T11:34:00.816Z,45.6
2022-11-20T11:35:19.798Z,44.6
2022-11-20T11:36:37.581Z,44
2022-11-20T11:37:54.833Z,43.8
2022-11-20T11:39:11.889Z,43.7
2022-11-20T11:40:29.666Z,44.3
2022-11-20T11:41:46.854Z,44
2022-11-20T11:43:03.844Z,43.4
2022-11-20T11:44:22.201Z,43
2022-11-20T11:45:39.067Z,42.6
2022-11-20T11:46:55.876Z,43.2
2022-11-20T11:48:14.055Z,43.6
2022-11-20T11:49:30.874Z,44.1
2022-11-20T11:50:47.841Z,44.6
2022-11-20T11:52:05.211Z,45.1
2022-11-20T11:53:21.883Z,45.3
2022-11-20T11:54:40.602Z,46
2022-11-20T11:55:57.133Z,46.7
2022-11-20T11:57:13.859Z,47.3
2022-11-20T11:58:31.244Z,47.2
2022-11-20T11:59:47.834Z,47.1
2022-11-20T12:01:05.867Z,46.6
2022-11-20T12:02:24.114Z,45.7
2022-11-20T12:03:40.872Z,45.5
2022-11-20T12:04:57.856Z,45.8
2022-11-20T12:06:15.196Z,46.1
2022-11-20T12:07:45.889Z,46.7
2022-11-20T12:08:50.099Z,46.6
2022-11-20T12:10:06.925Z,46.8
2022-11-20T12:11:23.864Z,46.1
2022-11-20T12:12:41.237Z,45.1
2022-11-20T12:13:59.809Z,44
2022-11-20T12:15:16.859Z,43.5
2022-11-20T12:16:33.872Z,44
2022-11-20T12:17:51.387Z,44.3
2022-11-20T12:19:07.927Z,44.3
2022-11-20T12:20:25.288Z,43.9
2022-11-20T12:21:41.865Z,43.3
2022-11-20T12:22:58.871Z,43.4
2022-11-20T12:26:38.643Z,42.4
2022-11-20T12:27:56.770Z,41.8
2022-11-20T12:29:13.890Z,40.6
2022-11-20T12:30:32.074Z,39.2
2022-11-20T12:31:49.780Z,38.4
2022-11-20T12:33:06.939Z,37.9
2022-11-20T12:34:24.937Z,38.3
2022-11-20T12:35:41.982Z,39.3
2022-11-20T12:36:58.883Z,39.4
2022-11-20T12:38:15.895Z,38.9
2022-11-20T12:39:32.944Z,38.7
2022-11-20T12:40:49.939Z,38.7
2022-11-20T12:42:06.823Z,39.3
2022-11-20T12:43:23.978Z,39.7
2022-11-20T12:44:40.908Z,40
2022-11-20T12:45:57.897Z,39.8
2022-11-20T12:47:14.915Z,40.1
2022-11-20T12:48:31.950Z,40.4
2022-11-20T12:49:48.921Z,40.5
2022-11-20T12:51:14.912Z,40.2
2022-11-20T12:52:22.941Z,40.3
2022-11-20T12:53:39.950Z,40.5
2022-11-20T12:54:56.920Z,40.4
2022-11-20T12:56:13.949Z,41.1
2022-11-20T12:57:30.921Z,41.3
2022-11-20T12:58:47.984Z,40.9
2022-11-20T13:00:05.267Z,40.7
2022-11-20T13:01:21.980Z,40.8
2022-11-20T13:02:39.015Z,40.7
2022-11-20T13:03:55.855Z,40.7
2022-11-20T13:05:12.996Z,40.9
2022-11-20T13:06:29.978Z,41.5
2022-11-20T13:07:47.015Z,42
2022-11-20T13:09:03.947Z,42.7
2022-11-20T13:10:21.015Z,43.3
2022-11-20T13:11:37.949Z,43.4
2022-11-20T13:12:55.161Z,43.1
2022-11-20T13:14:12.369Z,43.3
2022-11-20T13:15:29.004Z,43.7
2022-11-20T13:16:46.140Z,44
2022-11-20T13:18:02.955Z,44.6
2022-11-20T13:19:19.954Z,44.3
2022-11-20T13:20:37.008Z,43.7
2022-11-20T13:21:54.023Z,43.5
2022-11-20T13:23:11.082Z,43.7
2022-11-20T13:24:28.075Z,43.3
2022-11-20T13:25:44.948Z,43.2
2022-11-20T13:27:01.990Z,43.3
2022-11-20T13:28:19.028Z,42.9
2022-11-20T13:29:36.280Z,42.2
2022-11-20T13:30:52.995Z,41.5
2022-11-20T13:32:10.244Z,41.6
2022-11-20T13:33:27.031Z,41.9
2022-11-20T13:34:44.025Z,42.7
2022-11-20T13:36:01.035Z,43.9
2022-11-20T13:37:18.042Z,45.1
2022-11-20T13:38:34.981Z,46.1
2022-11-20T13:39:51.989Z,46.9
2022-11-20T13:41:08.989Z,46.6
2022-11-20T13:42:27.094Z,46.4
2022-11-20T13:43:45.233Z,46.1
2022-11-20T13:45:01.978Z,45.1
2022-11-20T13:46:18.997Z,44.4
2022-11-20T13:47:36.101Z,43.5
2022-11-20T13:48:53.030Z,43.3
2022-11-20T13:50:10.099Z,43.4
2022-11-20T13:51:27.026Z,43.2
2022-11-20T13:52:44.068Z,43.4
2022-11-20T13:54:01.009Z,43.5
2022-11-20T13:55:18.019Z,42.9
2022-11-20T13:56:35.000Z,42.5
2022-11-20T13:57:52.091Z,42.6
2022-11-20T13:59:13.566Z,42.6
2022-11-20T14:00:26.136Z,42.5
2022-11-20T14:01:43.077Z,42.6
2022-11-20T14:03:00.046Z,41.9
2022-11-20T14:04:17.198Z,41.3
2022-11-20T14:05:34.085Z,40.7
2022-11-20T14:06:51.329Z,40
2022-11-20T14:08:08.056Z,39.4
2022-11-20T14:09:25.050Z,38.9
2022-11-20T14:10:42.017Z,38.8
2022-11-20T14:11:59.043Z,39
2022-11-20T14:13:16.026Z,39.3
2022-11-20T14:14:33.055Z,39.3
2022-11-20T14:15:50.029Z,39.9
2022-11-20T14:17:07.049Z,40.7
2022-11-20T14:18:24.046Z,41
2022-11-20T14:19:41.053Z,41.3
2022-11-20T14:20:58.073Z,41.4
2022-11-20T14:22:15.039Z,41.4
2022-11-20T14:23:32.041Z,41.1
2022-11-20T14:24:49.050Z,40.8
2022-11-20T14:26:06.690Z,40.2
2022-11-20T14:27:24.054Z,39.4
2022-11-20T14:28:41.108Z,39
2022-11-20T14:29:58.125Z,38.4
2022-11-20T14:31:15.072Z,38.1
2022-11-20T14:32:32.079Z,37.9
2022-11-20T14:33:49.077Z,37.7
2022-11-20T14:35:06.192Z,37.6
2022-11-20T14:36:23.158Z,37.7
2022-11-20T14:37:40.066Z,38.1
2022-11-20T14:38:57.062Z,38.8
2022-11-20T14:40:14.090Z,39.2
2022-11-20T14:41:31.099Z,39.4
2022-11-20T14:42:48.250Z,39.4
2022-11-20T14:44:05.112Z,39.4
2022-11-20T14:45:22.121Z,39.6
2022-11-20T14:46:39.078Z,39.8
2022-11-20T14:47:56.066Z,40.1
2022-11-20T14:49:13.144Z,40.3
2022-11-20T14:50:30.075Z,40.5
2022-11-20T14:51:47.101Z,40.8
2022-11-20T14:53:04.072Z,41.3
2022-11-20T14:54:21.697Z,41.5
2022-11-20T14:55:38.085Z,41.8
2022-11-20T14:56:55.119Z,42.2
2022-11-20T14:58:12.084Z,42.6
2022-11-20T14:59:29.100Z,43
2022-11-20T15:00:46.127Z,43.2
2022-11-20T15:02:03.275Z,43.5
2022-11-20T15:03:20.245Z,44.3
2022-11-20T15:04:37.103Z,45.6
2022-11-20T15:05:54.133Z,46.8
2022-11-20T15:07:11.241Z,47.9
2022-11-20T15:08:28.116Z,48.4
2022-11-20T15:09:45.130Z,49.3
2022-11-20T15:11:02.126Z,49.8
2022-11-20T15:12:19.124Z,49.8
2022-11-20T15:13:36.096Z,49.7
2022-11-20T15:14:53.110Z,49.3
2022-11-20T15:16:10.133Z,49.2
2022-11-20T15:17:27.181Z,49.1
2022-11-20T15:18:44.115Z,49
2022-11-20T15:20:01.104Z,49
2022-11-20T15:21:18.142Z,49
2022-11-20T15:22:35.252Z,49.1
2022-11-20T15:23:52.124Z,49.1
2022-11-20T15:25:09.398Z,49.2
2022-11-20T15:26:26.262Z,49.4
2022-11-20T15:27:43.172Z,49.4
2022-11-20T15:29:00.128Z,49.4
2022-11-20T15:30:17.145Z,49.5
2022-11-20T15:31:34.136Z,49.9
2022-11-20T15:32:51.186Z,50.4
2022-11-20T15:34:08.213Z,50.8
2022-11-20T15:35:25.144Z,51.2
2022-11-20T15:36:42.154Z,51.3
2022-11-20T15:37:59.142Z,51.6
2022-11-20T15:39:16.224Z,51.8
2022-11-20T15:40:33.183Z,51.6
2022-11-20T15:41:50.160Z,51.7
2022-11-20T15:43:12.825Z,51.7
2022-11-20T15:44:25.006Z,51.8
2022-11-20T15:45:41.204Z,51.9
2022-11-20T15:52:40.289Z,51.9
2022-11-20T15:53:48.192Z,52.1
2022-11-20T15:55:09.479Z,52.3
2022-11-20T15:56:22.528Z,52.4
2022-11-20T15:57:39.224Z,52.5
2022-11-20T15:58:56.160Z,52.5
2022-11-20T16:00:13.354Z,52.4
2022-11-20T16:01:30.270Z,52.9
2022-11-20T16:02:47.163Z,53.7
2022-11-20T16:04:04.210Z,54.7
2022-11-20T16:05:21.159Z,55.7
2022-11-20T16:06:38.205Z,56.7
2022-11-20T16:07:55.305Z,57.7
2022-11-20T16:09:12.332Z,58.6
2022-11-20T16:10:29.331Z,59.3
2022-11-20T16:11:46.198Z,60.1
2022-11-20T16:13:03.368Z,60.7
2022-11-20T16:14:20.406Z,61.1
2022-11-20T16:15:37.211Z,61.1
2022-11-20T16:16:54.214Z,60.9
2022-11-20T16:18:11.202Z,60.7
2022-11-20T16:19:28.167Z,60.7
2022-11-20T16:20:45.298Z,60.7
2022-11-20T16:22:03.273Z,60.7
2022-11-20T16:23:19.173Z,60.6
2022-11-20T16:24:36.386Z,60.5
2022-11-20T16:25:53.234Z,60.6
2022-11-20T16:27:10.233Z,60.5
2022-11-20T16:28:27.836Z,60.4
2022-11-20T16:29:45.723Z,60.5
2022-11-20T16:31:02.259Z,60.6
2022-11-20T16:32:19.395Z,60.5
2022-11-20T16:33:36.208Z,60.2
2022-11-20T16:34:53.209Z,59.9
2022-11-20T16:36:10.236Z,59.7
2022-11-20T16:37:27.378Z,59.1
2022-11-20T16:38:44.246Z,58.6
2022-11-20T16:40:01.203Z,58
2022-11-20T16:41:18.294Z,57.6
2022-11-20T16:42:35.206Z,57.5
2022-11-20T16:43:52.224Z,57.5
2022-11-20T16:45:09.287Z,57.7
2022-11-20T16:46:26.340Z,57.7
2022-11-20T16:47:43.213Z,57.4
2022-11-20T16:49:00.308Z,57.3
2022-11-20T16:50:17.715Z,57.2
2022-11-20T16:51:35.360Z,57.3
2022-11-20T16:52:52.472Z,57.7
2022-11-20T16:54:09.252Z,58
2022-11-20T16:55:26.553Z,58.1
2022-11-20T16:56:43.429Z,58.5
2022-11-20T16:58:00.458Z,58.9
2022-11-20T16:59:17.229Z,59.2
2022-11-20T17:00:34.427Z,59.2
2022-11-20T17:01:51.467Z,59.1
2022-11-20T17:03:08.516Z,58.9
2022-11-20T17:04:25.898Z,59.3
2022-11-20T17:05:42.892Z,60.1
2022-11-20T17:07:03.805Z,61
2022-11-20T17:08:17.737Z,62
2022-11-20T17:09:34.741Z,62.4
2022-11-20T17:10:51.793Z,62.1
2022-11-20T17:12:09.656Z,61.7
2022-11-20T17:13:26.750Z,61.3
2022-11-20T17:14:43.491Z,60.8
2022-11-20T17:16:00.925Z,60.4
2022-11-20T17:17:17.498Z,60.1
2022-11-20T17:18:34.416Z,59.4
2022-11-20T17:19:51.601Z,59.2
2022-11-20T17:21:09.047Z,59.2
2022-11-20T17:22:26.375Z,59.7
2022-11-20T17:23:43.514Z,60.3